sensor_id;sensor_type;location;lat;lon;timestamp;P1;durP1;ratioP1;P2;durP2;ratioP2
9524;SDS011;15940;48.734;9.112;2023-05-08T00:00:07;19.03;;;17.03;;
9524;SDS011;15940;48.734;9.112;2023-05-08T00:02:35;19.10;;;17.30;;
9524;SDS011;15940;48.734;9.112;2023-05-08T00:05:03;21.77;;;19.60;;
9524;SDS011;15940;48.734;9.112;2023-05-08T00:07:31;19.97;;;18.07;;
9524;SDS011;15940;48.734;9.112;2023-05-08T00:09:58;21.83;;;19.60;;
9524;SDS011;15940;48.734;9.112;2023-05-08T00:12:25;20.00;;;17.93;;
9524;SDS011;15940;48.734;9.112;2023-05-08T00:14:52;20.17;;;18.27;;
9524;SDS011;15940;48.734;9.112;2023-05-08T00:17:19;18.97;;;17.03;;
9524;SDS011;15940;48.734;9.112;2023-05-08T00:19:46;21.00;;;17.97;;
9524;SDS011;15940;48.734;9.112;2023-05-08T00:22:14;23.00;;;19.23;;
9524;SDS011;15940;48.734;9.112;2023-05-08T00:24:41;21.13;;;19.03;;
9524;SDS011;15940;48.734;9.112;2023-05-08T00:27:08;20.80;;;18.47;;
9524;SDS011;15940;48.734;9.112;2023-05-08T00:29:35;21.63;;;19.53;;
9524;SDS011;15940;48.734;9.112;2023-05-08T00:34:25;21.70;;;19.40;;
9524;SDS011;15940;48.734;9.112;2023-05-08T00:36:52;21.93;;;19.70;;
9524;SDS011;15940;48.734;9.112;2023-05-08T00:39:22;23.93;;;21.37;;
9524;SDS011;15940;48.734;9.112;2023-05-08T00:41:49;23.67;;;21.00;;
9524;SDS011;15940;48.734;9.112;2023-05-08T00:44:16;20.93;;;18.77;;
9524;SDS011;15940;48.734;9.112;2023-05-08T00:46:43;24.53;;;21.87;;
9524;SDS011;15940;48.734;9.112;2023-05-08T00:49:10;23.43;;;21.07;;
9524;SDS011;15940;48.734;9.112;2023-05-08T00:51:40;22.97;;;20.77;;
9524;SDS011;15940;48.734;9.112;2023-05-08T00:54:08;23.03;;;20.13;;
9524;SDS011;15940;48.734;9.112;2023-05-08T00:56:37;22.63;;;20.30;;
9524;SDS011;15940;48.734;9.112;2023-05-08T00:59:06;21.53;;;19.33;;
9524;SDS011;15940;48.734;9.112;2023-05-08T01:01:36;21.53;;;19.33;;
9524;SDS011;15940;48.734;9.112;2023-05-08T01:04:05;19.47;;;17.50;;
9524;SDS011;15940;48.734;9.112;2023-05-08T01:08:58;16.97;;;15.47;;
9524;SDS011;15940;48.734;9.112;2023-05-08T01:11:27;16.03;;;14.47;;
9524;SDS011;15940;48.734;9.112;2023-05-08T01:14:06;17.87;;;16.23;;
9524;SDS011;15940;48.734;9.112;2023-05-08T01:16:42;19.70;;;16.87;;
9524;SDS011;15940;48.734;9.112;2023-05-08T01:19:39;18.30;;;16.50;;
9524;SDS011;15940;48.734;9.112;2023-05-08T01:22:39;18.77;;;16.67;;
9524;SDS011;15940;48.734;9.112;2023-05-08T01:32:29;18.53;;;16.73;;
9524;SDS011;15940;48.734;9.112;2023-05-08T01:37:33;18.63;;;16.73;;
9524;SDS011;15940;48.734;9.112;2023-05-08T01:40:18;17.53;;;15.83;;
9524;SDS011;15940;48.734;9.112;2023-05-08T01:42:52;19.00;;;17.03;;
9524;SDS011;15940;48.734;9.112;2023-05-08T01:45:30;17.37;;;15.57;;
9524;SDS011;15940;48.734;9.112;2023-05-08T01:48:03;17.30;;;15.47;;
9524;SDS011;15940;48.734;9.112;2023-05-08T01:50:34;16.37;;;14.80;;
9524;SDS011;15940;48.734;9.112;2023-05-08T01:53:08;17.23;;;15.00;;
9524;SDS011;15940;48.734;9.112;2023-05-08T01:55:42;15.70;;;14.20;;
9524;SDS011;15940;48.734;9.112;2023-05-08T01:58:12;17.00;;;15.20;;
9524;SDS011;15940;48.734;9.112;2023-05-08T02:00:40;15.83;;;14.33;;
9524;SDS011;15940;48.734;9.112;2023-05-08T02:03:08;16.47;;;14.97;;
9524;SDS011;15940;48.734;9.112;2023-05-08T02:05:37;16.93;;;15.33;;
9524;SDS011;15940;48.734;9.112;2023-05-08T02:08:05;16.63;;;14.83;;
9524;SDS011;15940;48.734;9.112;2023-05-08T02:12:52;15.83;;;14.33;;
9524;SDS011;15940;48.734;9.112;2023-05-08T02:15:21;15.60;;;14.27;;
9524;SDS011;15940;48.734;9.112;2023-05-08T02:17:49;17.97;;;16.27;;
9524;SDS011;15940;48.734;9.112;2023-05-08T02:20:19;18.27;;;16.37;;
9524;SDS011;15940;48.734;9.112;2023-05-08T02:22:48;15.93;;;14.47;;
9524;SDS011;15940;48.734;9.112;2023-05-08T02:25:16;18.37;;;16.47;;
9524;SDS011;15940;48.734;9.112;2023-05-08T02:27:45;18.90;;;17.00;;
9524;SDS011;15940;48.734;9.112;2023-05-08T02:30:16;16.73;;;15.03;;
9524;SDS011;15940;48.734;9.112;2023-05-08T02:35:09;17.47;;;15.77;;
9524;SDS011;15940;48.734;9.112;2023-05-08T02:37:40;17.40;;;15.80;;
9524;SDS011;15940;48.734;9.112;2023-05-08T02:40:10;18.20;;;16.33;;
9524;SDS011;15940;48.734;9.112;2023-05-08T02:42:39;15.53;;;14.17;;
9524;SDS011;15940;48.734;9.112;2023-05-08T02:45:06;16.47;;;14.63;;
9524;SDS011;15940;48.734;9.112;2023-05-08T02:47:38;16.10;;;14.40;;
9524;SDS011;15940;48.734;9.112;2023-05-08T02:50:15;17.00;;;15.40;;
9524;SDS011;15940;48.734;9.112;2023-05-08T02:52:47;15.83;;;14.40;;
9524;SDS011;15940;48.734;9.112;2023-05-08T02:55:28;16.67;;;14.97;;
9524;SDS011;15940;48.734;9.112;2023-05-08T02:58:03;15.83;;;14.30;;
9524;SDS011;15940;48.734;9.112;2023-05-08T03:00:40;16.93;;;15.03;;
9524;SDS011;15940;48.734;9.112;2023-05-08T03:03:16;17.17;;;15.37;;
9524;SDS011;15940;48.734;9.112;2023-05-08T03:05:49;17.70;;;15.43;;
9524;SDS011;15940;48.734;9.112;2023-05-08T03:08:20;21.53;;;15.63;;
9524;SDS011;15940;48.734;9.112;2023-05-08T03:10:53;17.23;;;15.43;;
9524;SDS011;15940;48.734;9.112;2023-05-08T03:13:24;17.93;;;16.13;;
9524;SDS011;15940;48.734;9.112;2023-05-08T03:15:54;18.57;;;16.73;;
9524;SDS011;15940;48.734;9.112;2023-05-08T03:18:27;17.17;;;15.03;;
9524;SDS011;15940;48.734;9.112;2023-05-08T03:23:27;17.60;;;15.80;;
9524;SDS011;15940;48.734;9.112;2023-05-08T03:25:56;17.27;;;15.43;;
9524;SDS011;15940;48.734;9.112;2023-05-08T03:28:24;20.13;;;18.03;;
9524;SDS011;15940;48.734;9.112;2023-05-08T03:30:52;22.27;;;16.70;;
9524;SDS011;15940;48.734;9.112;2023-05-08T03:33:21;18.27;;;16.47;;
9524;SDS011;15940;48.734;9.112;2023-05-08T03:35:49;17.70;;;15.80;;
9524;SDS011;15940;48.734;9.112;2023-05-08T03:38:18;19.70;;;16.63;;
9524;SDS011;15940;48.734;9.112;2023-05-08T03:40:47;17.03;;;15.20;;
9524;SDS011;15940;48.734;9.112;2023-05-08T03:43:15;18.63;;;16.67;;
9524;SDS011;15940;48.734;9.112;2023-05-08T03:45:43;17.53;;;15.83;;
9524;SDS011;15940;48.734;9.112;2023-05-08T03:48:11;16.70;;;15.00;;
9524;SDS011;15940;48.734;9.112;2023-05-08T03:50:39;17.63;;;15.10;;
9524;SDS011;15940;48.734;9.112;2023-05-08T03:53:07;17.80;;;15.63;;
9524;SDS011;15940;48.734;9.112;2023-05-08T03:55:34;17.47;;;15.60;;
9524;SDS011;15940;48.734;9.112;2023-05-08T03:58:04;19.20;;;17.10;;
9524;SDS011;15940;48.734;9.112;2023-05-08T04:00:42;19.97;;;17.70;;
9524;SDS011;15940;48.734;9.112;2023-05-08T04:03:25;22.00;;;18.30;;
9524;SDS011;15940;48.734;9.112;2023-05-08T04:06:05;20.50;;;18.27;;
9524;SDS011;15940;48.734;9.112;2023-05-08T04:08:40;21.23;;;18.93;;
9524;SDS011;15940;48.734;9.112;2023-05-08T04:11:14;22.03;;;19.63;;
9524;SDS011;15940;48.734;9.112;2023-05-08T04:13:53;24.73;;;21.40;;
9524;SDS011;15940;48.734;9.112;2023-05-08T04:16:25;28.07;;;22.60;;
9524;SDS011;15940;48.734;9.112;2023-05-08T04:18:59;24.77;;;21.37;;
9524;SDS011;15940;48.734;9.112;2023-05-08T04:21:28;25.63;;;21.63;;
9524;SDS011;15940;48.734;9.112;2023-05-08T04:23:58;30.07;;;23.80;;
9524;SDS011;15940;48.734;9.112;2023-05-08T04:26:28;29.50;;;22.97;;
9524;SDS011;15940;48.734;9.112;2023-05-08T04:28:57;31.37;;;23.03;;
9524;SDS011;15940;48.734;9.112;2023-05-08T04:31:24;24.63;;;20.77;;
9524;SDS011;15940;48.734;9.112;2023-05-08T04:33:53;25.90;;;21.20;;
9524;SDS011;15940;48.734;9.112;2023-05-08T04:36:20;27.13;;;21.63;;
9524;SDS011;15940;48.734;9.112;2023-05-08T04:38:47;24.70;;;19.37;;
9524;SDS011;15940;48.734;9.112;2023-05-08T04:41:14;27.77;;;22.50;;
9524;SDS011;15940;48.734;9.112;2023-05-08T04:43:41;25.27;;;20.50;;
9524;SDS011;15940;48.734;9.112;2023-05-08T04:46:09;21.90;;;18.33;;
9524;SDS011;15940;48.734;9.112;2023-05-08T04:48:36;23.83;;;19.33;;
9524;SDS011;15940;48.734;9.112;2023-05-08T04:51:03;20.50;;;17.93;;
9524;SDS011;15940;48.734;9.112;2023-05-08T04:53:30;24.73;;;19.73;;
9524;SDS011;15940;48.734;9.112;2023-05-08T04:58:28;23.33;;;19.83;;
9524;SDS011;15940;48.734;9.112;2023-05-08T05:00:55;26.57;;;22.10;;
9524;SDS011;15940;48.734;9.112;2023-05-08T05:03:22;22.80;;;19.30;;
9524;SDS011;15940;48.734;9.112;2023-05-08T05:05:55;26.40;;;21.50;;
9524;SDS011;15940;48.734;9.112;2023-05-08T05:08:23;24.40;;;20.27;;
9524;SDS011;15940;48.734;9.112;2023-05-08T05:10:50;30.77;;;23.27;;
9524;SDS011;15940;48.734;9.112;2023-05-08T05:13:17;23.90;;;21.33;;
9524;SDS011;15940;48.734;9.112;2023-05-08T05:15:47;22.77;;;20.43;;
9524;SDS011;15940;48.734;9.112;2023-05-08T05:18:15;27.43;;;21.57;;
9524;SDS011;15940;48.734;9.112;2023-05-08T05:20:42;24.60;;;21.30;;
9524;SDS011;15940;48.734;9.112;2023-05-08T05:23:09;25.77;;;21.80;;
9524;SDS011;15940;48.734;9.112;2023-05-08T05:25:36;27.27;;;21.63;;
9524;SDS011;15940;48.734;9.112;2023-05-08T05:28:03;27.67;;;22.43;;
9524;SDS011;15940;48.734;9.112;2023-05-08T05:30:30;24.37;;;21.83;;
9524;SDS011;15940;48.734;9.112;2023-05-08T05:32:58;25.10;;;21.67;;
9524;SDS011;15940;48.734;9.112;2023-05-08T05:35:25;21.93;;;19.63;;
9524;SDS011;15940;48.734;9.112;2023-05-08T05:37:52;22.37;;;19.47;;
9524;SDS011;15940;48.734;9.112;2023-05-08T05:40:19;22.40;;;19.17;;
9524;SDS011;15940;48.734;9.112;2023-05-08T05:42:47;25.07;;;20.17;;
9524;SDS011;15940;48.734;9.112;2023-05-08T05:47:37;20.90;;;18.37;;
9524;SDS011;15940;48.734;9.112;2023-05-08T05:50:09;24.43;;;20.93;;
9524;SDS011;15940;48.734;9.112;2023-05-08T05:52:36;22.80;;;20.33;;
9524;SDS011;15940;48.734;9.112;2023-05-08T05:55:03;22.90;;;19.00;;
9524;SDS011;15940;48.734;9.112;2023-05-08T05:57:31;23.77;;;19.60;;
9524;SDS011;15940;48.734;9.112;2023-05-08T05:59:58;24.67;;;20.17;;
9524;SDS011;15940;48.734;9.112;2023-05-08T06:02:25;21.87;;;19.57;;
9524;SDS011;15940;48.734;9.112;2023-05-08T06:04:53;18.73;;;16.80;;
9524;SDS011;15940;48.734;9.112;2023-05-08T06:07:20;21.50;;;19.20;;
9524;SDS011;15940;48.734;9.112;2023-05-08T06:09:47;24.23;;;20.67;;
9524;SDS011;15940;48.734;9.112;2023-05-08T06:12:17;19.43;;;17.43;;
9524;SDS011;15940;48.734;9.112;2023-05-08T06:14:44;18.90;;;17.03;;
9524;SDS011;15940;48.734;9.112;2023-05-08T06:17:11;20.13;;;17.93;;
9524;SDS011;15940;48.734;9.112;2023-05-08T06:19:38;21.90;;;18.17;;
9524;SDS011;15940;48.734;9.112;2023-05-08T06:22:06;20.27;;;18.23;;
9524;SDS011;15940;48.734;9.112;2023-05-08T06:24:33;17.83;;;16.07;;
9524;SDS011;15940;48.734;9.112;2023-05-08T06:27:00;19.27;;;17.27;;
9524;SDS011;15940;48.734;9.112;2023-05-08T06:29:27;19.30;;;17.00;;
9524;SDS011;15940;48.734;9.112;2023-05-08T06:31:54;19.27;;;16.20;;
9524;SDS011;15940;48.734;9.112;2023-05-08T06:34:21;18.60;;;16.80;;
9524;SDS011;15940;48.734;9.112;2023-05-08T06:36:48;18.60;;;16.67;;
9524;SDS011;15940;48.734;9.112;2023-05-08T06:39:16;19.13;;;17.13;;
9524;SDS011;15940;48.734;9.112;2023-05-08T06:41:45;17.73;;;16.03;;
9524;SDS011;15940;48.734;9.112;2023-05-08T06:44:12;17.63;;;15.93;;
9524;SDS011;15940;48.734;9.112;2023-05-08T06:46:39;16.73;;;15.13;;
9524;SDS011;15940;48.734;9.112;2023-05-08T06:49:06;17.80;;;16.10;;
9524;SDS011;15940;48.734;9.112;2023-05-08T06:51:33;17.67;;;15.97;;
9524;SDS011;15940;48.734;9.112;2023-05-08T06:54:02;18.30;;;16.50;;
9524;SDS011;15940;48.734;9.112;2023-05-08T06:56:33;16.80;;;15.30;;
9524;SDS011;15940;48.734;9.112;2023-05-08T06:59:00;17.83;;;16.13;;
9524;SDS011;15940;48.734;9.112;2023-05-08T07:01:27;17.20;;;15.50;;
9524;SDS011;15940;48.734;9.112;2023-05-08T07:03:54;16.83;;;15.13;;
9524;SDS011;15940;48.734;9.112;2023-05-08T07:06:21;17.60;;;16.00;;
9524;SDS011;15940;48.734;9.112;2023-05-08T07:08:48;17.87;;;16.17;;
9524;SDS011;15940;48.734;9.112;2023-05-08T07:11:15;17.07;;;15.57;;
9524;SDS011;15940;48.734;9.112;2023-05-08T07:13:43;17.60;;;15.90;;
9524;SDS011;15940;48.734;9.112;2023-05-08T07:16:12;18.83;;;16.90;;
9524;SDS011;15940;48.734;9.112;2023-05-08T07:18:39;18.83;;;16.97;;
9524;SDS011;15940;48.734;9.112;2023-05-08T07:21:07;18.00;;;16.20;;
9524;SDS011;15940;48.734;9.112;2023-05-08T07:23:34;18.00;;;16.10;;
9524;SDS011;15940;48.734;9.112;2023-05-08T07:26:01;19.73;;;17.60;;
9524;SDS011;15940;48.734;9.112;2023-05-08T07:28:29;21.57;;;16.97;;
9524;SDS011;15940;48.734;9.112;2023-05-08T07:30:57;18.07;;;16.37;;
9524;SDS011;15940;48.734;9.112;2023-05-08T07:33:24;18.23;;;16.43;;
9524;SDS011;15940;48.734;9.112;2023-05-08T07:35:51;18.87;;;17.07;;
9524;SDS011;15940;48.734;9.112;2023-05-08T07:38:17;17.70;;;16.10;;
9524;SDS011;15940;48.734;9.112;2023-05-08T07:40:44;19.00;;;17.07;;
9524;SDS011;15940;48.734;9.112;2023-05-08T07:43:12;18.60;;;16.80;;
9524;SDS011;15940;48.734;9.112;2023-05-08T07:45:40;19.50;;;17.37;;
9524;SDS011;15940;48.734;9.112;2023-05-08T07:48:08;18.70;;;16.93;;
9524;SDS011;15940;48.734;9.112;2023-05-08T07:50:35;18.83;;;16.83;;
9524;SDS011;15940;48.734;9.112;2023-05-08T07:53:02;17.47;;;15.77;;
9524;SDS011;15940;48.734;9.112;2023-05-08T07:55:29;16.57;;;15.00;;
9524;SDS011;15940;48.734;9.112;2023-05-08T07:57:56;16.03;;;14.53;;
9524;SDS011;15940;48.734;9.112;2023-05-08T08:00:23;15.30;;;13.80;;
9524;SDS011;15940;48.734;9.112;2023-05-08T08:02:51;14.97;;;13.60;;
9524;SDS011;15940;48.734;9.112;2023-05-08T08:05:19;16.03;;;14.50;;
9524;SDS011;15940;48.734;9.112;2023-05-08T08:07:47;15.70;;;14.20;;
9524;SDS011;15940;48.734;9.112;2023-05-08T08:10:14;15.20;;;13.70;;
9524;SDS011;15940;48.734;9.112;2023-05-08T08:12:41;14.83;;;13.43;;
9524;SDS011;15940;48.734;9.112;2023-05-08T08:15:08;14.67;;;13.47;;
9524;SDS011;15940;48.734;9.112;2023-05-08T08:17:35;12.87;;;11.77;;
9524;SDS011;15940;48.734;9.112;2023-05-08T08:20:02;13.00;;;11.80;;
9524;SDS011;15940;48.734;9.112;2023-05-08T08:22:32;12.97;;;11.77;;
9524;SDS011;15940;48.734;9.112;2023-05-08T08:25:00;13.30;;;12.00;;
9524;SDS011;15940;48.734;9.112;2023-05-08T08:27:27;13.23;;;11.77;;
9524;SDS011;15940;48.734;9.112;2023-05-08T08:29:54;11.53;;;10.33;;
9524;SDS011;15940;48.734;9.112;2023-05-08T08:32:21;11.30;;;9.73;;
9524;SDS011;15940;48.734;9.112;2023-05-08T08:34:48;9.87;;;9.07;;
9524;SDS011;15940;48.734;9.112;2023-05-08T08:37:15;9.20;;;8.30;;
9524;SDS011;15940;48.734;9.112;2023-05-08T08:39:43;8.83;;;8.03;;
9524;SDS011;15940;48.734;9.112;2023-05-08T08:42:10;9.67;;;8.87;;
9524;SDS011;15940;48.734;9.112;2023-05-08T08:44:37;12.17;;;8.83;;
9524;SDS011;15940;48.734;9.112;2023-05-08T08:47:04;10.43;;;8.60;;
9524;SDS011;15940;48.734;9.112;2023-05-08T08:49:33;10.53;;;9.43;;
9524;SDS011;15940;48.734;9.112;2023-05-08T08:52:01;10.90;;;9.77;;
9524;SDS011;15940;48.734;9.112;2023-05-08T08:54:32;10.83;;;9.73;;
9524;SDS011;15940;48.734;9.112;2023-05-08T08:57:04;11.90;;;10.70;;
9524;SDS011;15940;48.734;9.112;2023-05-08T08:59:32;11.17;;;9.83;;
9524;SDS011;15940;48.734;9.112;2023-05-08T09:02:04;10.90;;;9.77;;
9524;SDS011;15940;48.734;9.112;2023-05-08T09:04:35;12.40;;;10.07;;
9524;SDS011;15940;48.734;9.112;2023-05-08T09:07:02;12.40;;;11.13;;
9524;SDS011;15940;48.734;9.112;2023-05-08T09:09:32;13.33;;;10.07;;
9524;SDS011;15940;48.734;9.112;2023-05-08T09:12:03;11.93;;;10.27;;
9524;SDS011;15940;48.734;9.112;2023-05-08T09:14:31;11.17;;;9.67;;
9524;SDS011;15940;48.734;9.112;2023-05-08T09:16:58;11.23;;;9.73;;
9524;SDS011;15940;48.734;9.112;2023-05-08T09:19:25;10.50;;;9.50;;
9524;SDS011;15940;48.734;9.112;2023-05-08T09:21:53;10.20;;;9.23;;
9524;SDS011;15940;48.734;9.112;2023-05-08T09:24:20;9.63;;;8.73;;
9524;SDS011;15940;48.734;9.112;2023-05-08T09:26:48;10.53;;;8.90;;
9524;SDS011;15940;48.734;9.112;2023-05-08T09:29:17;8.70;;;7.90;;
9524;SDS011;15940;48.734;9.112;2023-05-08T09:31:47;9.67;;;7.83;;
9524;SDS011;15940;48.734;9.112;2023-05-08T09:34:21;10.13;;;8.07;;
9524;SDS011;15940;48.734;9.112;2023-05-08T09:36:51;9.07;;;8.17;;
9524;SDS011;15940;48.734;9.112;2023-05-08T09:39:20;9.37;;;8.40;;
9524;SDS011;15940;48.734;9.112;2023-05-08T09:41:55;9.67;;;8.43;;
9524;SDS011;15940;48.734;9.112;2023-05-08T09:44:25;9.00;;;8.20;;
9524;SDS011;15940;48.734;9.112;2023-05-08T09:46:55;9.60;;;8.70;;
9524;SDS011;15940;48.734;9.112;2023-05-08T09:49:36;9.47;;;8.57;;
9524;SDS011;15940;48.734;9.112;2023-05-08T09:52:04;11.33;;;8.23;;
9524;SDS011;15940;48.734;9.112;2023-05-08T09:54:31;7.97;;;7.23;;
9524;SDS011;15940;48.734;9.112;2023-05-08T09:56:58;7.27;;;6.67;;
9524;SDS011;15940;48.734;9.112;2023-05-08T09:59:27;8.83;;;7.40;;
9524;SDS011;15940;48.734;9.112;2023-05-08T10:01:55;7.97;;;7.27;;
9524;SDS011;15940;48.734;9.112;2023-05-08T10:04:31;7.57;;;6.80;;
9524;SDS011;15940;48.734;9.112;2023-05-08T10:07:00;7.77;;;7.03;;
9524;SDS011;15940;48.734;9.112;2023-05-08T10:09:27;7.57;;;6.87;;
9524;SDS011;15940;48.734;9.112;2023-05-08T10:11:54;7.40;;;6.80;;
9524;SDS011;15940;48.734;9.112;2023-05-08T10:14:22;6.10;;;5.60;;
9524;SDS011;15940;48.734;9.112;2023-05-08T10:16:51;6.13;;;5.63;;
9524;SDS011;15940;48.734;9.112;2023-05-08T10:19:20;6.30;;;5.80;;
9524;SDS011;15940;48.734;9.112;2023-05-08T10:21:49;5.77;;;5.37;;
9524;SDS011;15940;48.734;9.112;2023-05-08T10:24:18;5.23;;;4.77;;
9524;SDS011;15940;48.734;9.112;2023-05-08T10:26:56;4.60;;;4.20;;
9524;SDS011;15940;48.734;9.112;2023-05-08T10:29:40;4.43;;;4.03;;
9524;SDS011;15940;48.734;9.112;2023-05-08T10:32:22;4.63;;;4.30;;
9524;SDS011;15940;48.734;9.112;2023-05-08T10:34:51;5.23;;;4.83;;
9524;SDS011;15940;48.734;9.112;2023-05-08T10:37:21;4.93;;;4.40;;
9524;SDS011;15940;48.734;9.112;2023-05-08T10:39:48;4.20;;;3.80;;
9524;SDS011;15940;48.734;9.112;2023-05-08T10:42:17;5.10;;;3.67;;
9524;SDS011;15940;48.734;9.112;2023-05-08T10:44:44;4.43;;;3.97;;
9524;SDS011;15940;48.734;9.112;2023-05-08T10:47:14;4.10;;;3.80;;
9524;SDS011;15940;48.734;9.112;2023-05-08T10:49:50;4.93;;;4.53;;
9524;SDS011;15940;48.734;9.112;2023-05-08T10:52:28;4.37;;;4.07;;
9524;SDS011;15940;48.734;9.112;2023-05-08T10:55:08;4.53;;;4.23;;
9524;SDS011;15940;48.734;9.112;2023-05-08T11:03:40;5.27;;;4.83;;
9524;SDS011;15940;48.734;9.112;2023-05-08T11:06:15;4.97;;;4.63;;
9524;SDS011;15940;48.734;9.112;2023-05-08T11:08:50;4.97;;;4.60;;
9524;SDS011;15940;48.734;9.112;2023-05-08T11:11:28;5.10;;;4.70;;
9524;SDS011;15940;48.734;9.112;2023-05-08T11:13:58;5.30;;;4.90;;
9524;SDS011;15940;48.734;9.112;2023-05-08T11:19:32;4.50;;;4.10;;
9524;SDS011;15940;48.734;9.112;2023-05-08T11:22:21;5.00;;;4.60;;
9524;SDS011;15940;48.734;9.112;2023-05-08T11:25:01;5.53;;;5.03;;
9524;SDS011;15940;48.734;9.112;2023-05-08T11:27:32;4.97;;;4.60;;
9524;SDS011;15940;48.734;9.112;2023-05-08T11:30:21;4.90;;;4.50;;
9524;SDS011;15940;48.734;9.112;2023-05-08T11:35:58;3.77;;;3.53;;
9524;SDS011;15940;48.734;9.112;2023-05-08T11:38:37;3.20;;;3.00;;
9524;SDS011;15940;48.734;9.112;2023-05-08T11:41:05;4.57;;;4.20;;
9524;SDS011;15940;48.734;9.112;2023-05-08T11:46:42;4.43;;;4.00;;
9524;SDS011;15940;48.734;9.112;2023-05-08T11:49:15;4.20;;;3.90;;
9524;SDS011;15940;48.734;9.112;2023-05-08T11:51:44;5.40;;;4.90;;
9524;SDS011;15940;48.734;9.112;2023-05-08T11:54:16;6.17;;;5.67;;
9524;SDS011;15940;48.734;9.112;2023-05-08T11:56:45;5.87;;;5.37;;
9524;SDS011;15940;48.734;9.112;2023-05-08T11:59:12;6.00;;;5.50;;
9524;SDS011;15940;48.734;9.112;2023-05-08T12:01:41;6.83;;;6.27;;
9524;SDS011;15940;48.734;9.112;2023-05-08T12:04:08;7.30;;;6.70;;
9524;SDS011;15940;48.734;9.112;2023-05-08T12:06:38;7.97;;;7.27;;
9524;SDS011;15940;48.734;9.112;2023-05-08T12:09:09;7.47;;;6.63;;
9524;SDS011;15940;48.734;9.112;2023-05-08T12:11:40;7.93;;;7.20;;
9524;SDS011;15940;48.734;9.112;2023-05-08T12:14:09;7.83;;;7.07;;
9524;SDS011;15940;48.734;9.112;2023-05-08T12:16:36;7.23;;;6.63;;
9524;SDS011;15940;48.734;9.112;2023-05-08T12:19:08;10.00;;;7.33;;
9524;SDS011;15940;48.734;9.112;2023-05-08T12:21:35;9.33;;;7.30;;
9524;SDS011;15940;48.734;9.112;2023-05-08T12:24:04;7.73;;;6.97;;
9524;SDS011;15940;48.734;9.112;2023-05-08T12:26:40;10.50;;;7.77;;
9524;SDS011;15940;48.734;9.112;2023-05-08T12:29:07;8.10;;;7.40;;
9524;SDS011;15940;48.734;9.112;2023-05-08T12:31:34;7.30;;;6.70;;
9524;SDS011;15940;48.734;9.112;2023-05-08T12:34:01;7.87;;;7.10;;
9524;SDS011;15940;48.734;9.112;2023-05-08T12:36:32;7.87;;;7.20;;
9524;SDS011;15940;48.734;9.112;2023-05-08T12:39:10;8.70;;;7.90;;
9524;SDS011;15940;48.734;9.112;2023-05-08T12:41:42;7.93;;;7.23;;
9524;SDS011;15940;48.734;9.112;2023-05-08T12:44:16;8.50;;;7.70;;
9524;SDS011;15940;48.734;9.112;2023-05-08T12:46:45;7.73;;;7.03;;
9524;SDS011;15940;48.734;9.112;2023-05-08T12:49:21;7.80;;;7.10;;
9524;SDS011;15940;48.734;9.112;2023-05-08T12:51:50;8.53;;;7.67;;
9524;SDS011;15940;48.734;9.112;2023-05-08T12:54:17;8.83;;;8.13;;
9524;SDS011;15940;48.734;9.112;2023-05-08T12:56:46;8.57;;;7.80;;
9524;SDS011;15940;48.734;9.112;2023-05-08T12:59:15;7.27;;;6.60;;
9524;SDS011;15940;48.734;9.112;2023-05-08T13:01:42;8.73;;;8.03;;
9524;SDS011;15940;48.734;9.112;2023-05-08T13:04:15;7.57;;;6.90;;
9524;SDS011;15940;48.734;9.112;2023-05-08T13:06:43;8.00;;;7.30;;
9524;SDS011;15940;48.734;9.112;2023-05-08T13:09:20;6.03;;;5.53;;
9524;SDS011;15940;48.734;9.112;2023-05-08T13:11:49;6.60;;;6.10;;
9524;SDS011;15940;48.734;9.112;2023-05-08T13:14:16;8.67;;;6.17;;
9524;SDS011;15940;48.734;9.112;2023-05-08T13:16:43;7.60;;;6.27;;
9524;SDS011;15940;48.734;9.112;2023-05-08T13:19:11;6.10;;;5.50;;
9524;SDS011;15940;48.734;9.112;2023-05-08T13:21:39;5.93;;;5.43;;
9524;SDS011;15940;48.734;9.112;2023-05-08T13:24:08;6.10;;;5.50;;
9524;SDS011;15940;48.734;9.112;2023-05-08T13:26:35;4.80;;;4.47;;
9524;SDS011;15940;48.734;9.112;2023-05-08T13:29:03;5.27;;;4.87;;
9524;SDS011;15940;48.734;9.112;2023-05-08T13:31:30;4.57;;;4.17;;
9524;SDS011;15940;48.734;9.112;2023-05-08T13:33:57;5.13;;;4.73;;
9524;SDS011;15940;48.734;9.112;2023-05-08T13:36:24;6.17;;;5.20;;
9524;SDS011;15940;48.734;9.112;2023-05-08T13:38:52;4.93;;;4.53;;
9524;SDS011;15940;48.734;9.112;2023-05-08T13:41:21;8.33;;;5.27;;
9524;SDS011;15940;48.734;9.112;2023-05-08T13:43:48;7.20;;;6.60;;
9524;SDS011;15940;48.734;9.112;2023-05-08T13:46:16;7.70;;;6.97;;
9524;SDS011;15940;48.734;9.112;2023-05-08T13:48:43;8.03;;;7.23;;
9524;SDS011;15940;48.734;9.112;2023-05-08T13:51:10;6.77;;;6.17;;
9524;SDS011;15940;48.734;9.112;2023-05-08T13:53:37;7.40;;;6.80;;
9524;SDS011;15940;48.734;9.112;2023-05-08T13:56:04;7.53;;;6.93;;
9524;SDS011;15940;48.734;9.112;2023-05-08T13:58:31;8.73;;;7.93;;
9524;SDS011;15940;48.734;9.112;2023-05-08T14:00:58;9.03;;;8.23;;
9524;SDS011;15940;48.734;9.112;2023-05-08T14:03:26;9.23;;;8.20;;
9524;SDS011;15940;48.734;9.112;2023-05-08T14:05:53;10.07;;;9.03;;
9524;SDS011;15940;48.734;9.112;2023-05-08T14:08:20;9.67;;;8.80;;
9524;SDS011;15940;48.734;9.112;2023-05-08T14:10:47;10.87;;;9.90;;
9524;SDS011;15940;48.734;9.112;2023-05-08T14:13:14;11.13;;;9.23;;
9524;SDS011;15940;48.734;9.112;2023-05-08T14:15:41;11.13;;;10.10;;
9524;SDS011;15940;48.734;9.112;2023-05-08T14:18:08;11.17;;;10.17;;
9524;SDS011;15940;48.734;9.112;2023-05-08T14:20:36;10.70;;;9.70;;
9524;SDS011;15940;48.734;9.112;2023-05-08T14:23:03;11.30;;;10.20;;
9524;SDS011;15940;48.734;9.112;2023-05-08T14:25:30;10.80;;;9.80;;
9524;SDS011;15940;48.734;9.112;2023-05-08T14:27:57;13.20;;;11.80;;
9524;SDS011;15940;48.734;9.112;2023-05-08T14:30:24;32.00;;;12.70;;
9524;SDS011;15940;48.734;9.112;2023-05-08T14:32:51;18.07;;;14.80;;
9524;SDS011;15940;48.734;9.112;2023-05-08T14:35:18;13.90;;;12.43;;
9524;SDS011;15940;48.734;9.112;2023-05-08T14:37:46;20.17;;;14.93;;
9524;SDS011;15940;48.734;9.112;2023-05-08T14:40:13;17.70;;;15.40;;
9524;SDS011;15940;48.734;9.112;2023-05-08T14:42:40;17.60;;;15.90;;
9524;SDS011;15940;48.734;9.112;2023-05-08T14:45:07;20.00;;;16.97;;
9524;SDS011;15940;48.734;9.112;2023-05-08T14:47:35;19.23;;;16.50;;
9524;SDS011;15940;48.734;9.112;2023-05-08T14:50:02;22.43;;;17.83;;
9524;SDS011;15940;48.734;9.112;2023-05-08T14:52:30;19.40;;;17.50;;
9524;SDS011;15940;48.734;9.112;2023-05-08T14:54:58;19.30;;;17.40;;
9524;SDS011;15940;48.734;9.112;2023-05-08T14:57:25;20.83;;;18.67;;
9524;SDS011;15940;48.734;9.112;2023-05-08T14:59:52;20.33;;;18.23;;
9524;SDS011;15940;48.734;9.112;2023-05-08T15:02:20;20.60;;;18.50;;
9524;SDS011;15940;48.734;9.112;2023-05-08T15:04:48;20.50;;;18.50;;
9524;SDS011;15940;48.734;9.112;2023-05-08T15:07:14;21.57;;;19.37;;
9524;SDS011;15940;48.734;9.112;2023-05-08T15:09:41;25.33;;;20.33;;
9524;SDS011;15940;48.734;9.112;2023-05-08T15:12:10;20.97;;;18.90;;
9524;SDS011;15940;48.734;9.112;2023-05-08T15:14:37;22.03;;;19.73;;
9524;SDS011;15940;48.734;9.112;2023-05-08T15:17:03;23.40;;;21.07;;
9524;SDS011;15940;48.734;9.112;2023-05-08T15:19:30;21.20;;;19.17;;
9524;SDS011;15940;48.734;9.112;2023-05-08T15:21:57;23.43;;;20.53;;
9524;SDS011;15940;48.734;9.112;2023-05-08T15:24:24;25.33;;;22.17;;
9524;SDS011;15940;48.734;9.112;2023-05-08T15:26:51;24.57;;;22.00;;
9524;SDS011;15940;48.734;9.112;2023-05-08T15:29:19;22.17;;;19.97;;
9524;SDS011;15940;48.734;9.112;2023-05-08T15:31:46;23.20;;;21.00;;
9524;SDS011;15940;48.734;9.112;2023-05-08T15:34:13;23.63;;;21.23;;
9524;SDS011;15940;48.734;9.112;2023-05-08T15:36:40;22.40;;;19.90;;